createdAt,value
2022-11-28T00:01:04.838Z,24.67
2022-11-28T00:02:07.121Z,22.00
2022-11-28T00:03:09.563Z,22.58
2022-11-28T00:04:12.759Z,20.83
2022-11-28T00:05:15.249Z,21.95
2022-11-28T00:06:18.105Z,22.55
2022-11-28T00:07:20.770Z,22.15
2022-11-28T00:08:23.364Z,20.73
2022-11-28T00:09:25.757Z,21.30
2022-11-28T00:10:27.944Z,19.08
2022-11-28T00:11:30.215Z,19.23
2022-11-28T00:12:32.374Z,21.73
2022-11-28T00:13:36.258Z,18.42
2022-11-28T00:14:38.451Z,23.73
2022-11-28T00:15:40.608Z,18.92
2022-11-28T00:16:43.044Z,19.65
2022-11-28T00:17:45.284Z,20.98
2022-11-28T00:18:48.874Z,19.98
2022-11-28T00:19:51.258Z,16.88
2022-11-28T00:21:02.360Z,19.73
2022-11-28T00:22:04.747Z,20.30
2022-11-28T00:23:07.121Z,20.98
2022-11-28T00:24:09.824Z,18.90
2022-11-28T00:25:12.214Z,22.30
2022-11-28T00:26:19.388Z,21.58
2022-11-28T00:27:21.742Z,20.58
2022-11-28T00:28:24.007Z,22.52
2022-11-28T00:29:26.217Z,18.75
2022-11-28T00:30:28.727Z,20.85
2022-11-28T00:31:33.541Z,18.65
2022-11-28T00:32:35.760Z,21.80
2022-11-28T00:33:38.130Z,21.52
2022-11-28T00:34:40.615Z,22.25
2022-11-28T00:35:43.215Z,20.33
2022-11-28T00:36:47.575Z,25.40
2022-11-28T00:37:49.851Z,19.75
2022-11-28T00:38:52.321Z,20.85
2022-11-28T00:39:54.536Z,20.52
2022-11-28T00:41:05.864Z,22.92
2022-11-28T00:42:08.038Z,20.67
2022-11-28T00:43:11.703Z,20.70
2022-11-28T00:44:13.959Z,21.63
2022-11-28T00:45:16.141Z,19.77
2022-11-28T00:46:20.315Z,24.60
2022-11-28T00:47:22.685Z,21.38
2022-11-28T00:48:26.004Z,25.02
2022-11-28T00:49:28.204Z,22.05
2022-11-28T00:50:30.576Z,23.38
2022-11-28T00:51:34.288Z,21.25
2022-11-28T00:52:36.688Z,19.20
2022-11-28T00:53:40.554Z,22.65
2022-11-28T00:54:43.018Z,23.60
2022-11-28T00:55:45.388Z,21.00
2022-11-28T00:56:47.812Z,27.02
2022-11-28T00:57:50.200Z,22.75
2022-11-28T00:58:53.040Z,24.88
2022-11-28T00:59:55.400Z,25.60
2022-11-28T01:00:57.784Z,23.77
2022-11-28T01:02:00.022Z,22.15
2022-11-28T01:03:02.471Z,21.95
2022-11-28T01:04:07.382Z,20.40
2022-11-28T01:05:09.559Z,23.77
2022-11-28T01:06:12.933Z,22.83
2022-11-28T01:07:15.125Z,23.75
2022-11-28T01:08:17.814Z,24.45
2022-11-28T01:09:22.670Z,25.02
2022-11-28T01:10:24.938Z,29.48
2022-11-28T01:11:28.305Z,25.33
2022-11-28T01:12:30.502Z,25.02
2022-11-28T01:13:32.880Z,28.35
2022-11-28T01:14:35.517Z,27.05
2022-11-28T01:15:41.962Z,26.30
2022-11-28T01:16:44.316Z,26.23
2022-11-28T01:17:46.567Z,25.60
2022-11-28T01:18:48.954Z,28.50
2022-11-28T01:19:51.352Z,27.23
2022-11-28T01:20:53.561Z,23.67
2022-11-28T01:21:55.720Z,23.75
2022-11-28T01:22:57.903Z,23.48
2022-11-28T01:24:00.266Z,22.85
2022-11-28T01:25:02.454Z,24.77
2022-11-28T01:26:06.812Z,25.88
2022-11-28T01:27:08.998Z,25.27
2022-11-28T01:28:11.195Z,23.27
2022-11-28T01:29:13.851Z,25.40
2022-11-28T01:30:16.331Z,26.63
2022-11-28T01:31:21.764Z,26.20
2022-11-28T01:32:24.257Z,25.08
2022-11-28T01:33:26.429Z,25.25
2022-11-28T01:34:28.597Z,27.63
2022-11-28T01:35:31.013Z,26.30
2022-11-28T01:36:33.212Z,23.95
2022-11-28T01:37:35.376Z,25.25
2022-11-28T01:38:38.217Z,22.88
2022-11-28T01:39:40.728Z,25.15
2022-11-28T01:40:46.858Z,24.88
2022-11-28T01:41:49.074Z,27.60
2022-11-28T01:42:51.477Z,25.20
2022-11-28T01:44:11.830Z,22.95
2022-11-28T01:45:28.049Z,26.27
2022-11-28T01:46:31.137Z,24.85
2022-11-28T01:47:34.581Z,25.73
2022-11-28T01:48:41.646Z,28.63
2022-11-28T01:49:46.710Z,25.08
2022-11-28T01:50:55.514Z,26.08
2022-11-28T01:52:04.805Z,23.92
2022-11-28T01:53:10.264Z,24.02
2022-11-28T01:54:14.765Z,25.00
2022-11-28T01:55:20.546Z,28.40
2022-11-28T01:56:26.512Z,28.40
2022-11-28T01:57:29.854Z,25.88
2022-11-28T01:58:34.839Z,24.38
2022-11-28T01:59:42.310Z,24.58
2022-11-28T02:00:46.084Z,25.98
2022-11-28T02:01:48.520Z,23.80
2022-11-28T02:03:04.509Z,26.38
2022-11-28T02:04:06.903Z,23.70
2022-11-28T02:05:09.607Z,23.90
2022-11-28T02:06:14.721Z,22.75
2022-11-28T02:07:17.900Z,26.00
2022-11-28T02:08:20.225Z,23.83
2022-11-28T02:09:22.866Z,25.70
2022-11-28T02:10:28.694Z,24.58
2022-11-28T02:12:02.107Z,26.00
2022-11-28T02:13:22.680Z,25.75
2022-11-28T02:14:36.634Z,25.85
2022-11-28T02:16:11.229Z,23.52
2022-11-28T02:17:52.138Z,25.90
2022-11-28T02:19:25.191Z,30.15
2022-11-28T02:20:55.042Z,26.30
2022-11-28T02:22:04.372Z,28.85
2022-11-28T02:23:27.969Z,29.02
2022-11-28T02:24:54.619Z,29.10
2022-11-28T02:26:33.452Z,29.85
2022-11-28T02:28:19.917Z,29.35
2022-11-28T02:29:59.492Z,34.60
2022-11-28T02:31:25.083Z,29.10
2022-11-28T02:33:18.489Z,31.67
2022-11-28T02:35:02.173Z,32.15
2022-11-28T02:36:20.061Z,32.30
2022-11-28T02:37:24.912Z,34.35
2022-11-28T02:38:39.194Z,33.67
2022-11-28T02:39:54.975Z,32.42
2022-11-28T02:41:16.013Z,36.50
2022-11-28T02:42:32.119Z,33.13
2022-11-28T02:43:52.908Z,33.42
2022-11-28T02:46:21.947Z,32.33
2022-11-28T02:47:38.082Z,36.88
2022-11-28T02:48:51.825Z,34.08
2022-11-28T02:50:08.887Z,38.95
2022-11-28T02:51:34.307Z,36.72
2022-11-28T02:52:42.059Z,32.47
2022-11-28T02:53:45.873Z,33.10
2022-11-28T02:54:50.998Z,28.95
2022-11-28T02:55:53.692Z,35.63
2022-11-28T02:56:56.085Z,36.65
2022-11-28T02:57:58.479Z,34.72
2022-11-28T02:59:00.688Z,35.40
2022-11-28T03:00:21.741Z,34.58
2022-11-28T03:01:36.455Z,34.95
2022-11-28T03:02:39.079Z,32.50
2022-11-28T03:04:03.795Z,35.17
2022-11-28T03:05:19.703Z,39.92
2022-11-28T03:06:40.829Z,34.38
2022-11-28T03:08:14.982Z,34.83
2022-11-28T03:09:23.418Z,37.80
2022-11-28T03:10:37.267Z,36.42
2022-11-28T03:11:58.184Z,38.03
2022-11-28T03:13:25.181Z,36.88
2022-11-28T03:14:54.933Z,39.58
2022-11-28T03:16:15.489Z,37.20
2022-11-28T03:17:35.774Z,38.55
2022-11-28T03:19:06.568Z,40.40
2022-11-28T03:20:24.556Z,41.67
2022-11-28T03:21:44.598Z,37.67
2022-11-28T03:23:09.598Z,29.38
2022-11-28T03:24:46.195Z,39.20
2022-11-28T03:26:00.454Z,45.55
2022-11-28T03:27:24.160Z,44.38
2022-11-28T03:28:35.461Z,44.20
2022-11-28T03:29:40.311Z,41.58
2022-11-28T03:30:53.182Z,44.38
2022-11-28T03:32:01.725Z,46.78
2022-11-28T03:33:06.043Z,43.92
2022-11-28T03:34:14.725Z,50.63
2022-11-28T03:35:20.580Z,43.78
2022-11-28T03:36:31.048Z,47.25
2022-11-28T03:37:37.926Z,44.03
2022-11-28T03:38:45.403Z,45.35
2022-11-28T03:39:57.967Z,43.90
2022-11-28T03:41:06.918Z,46.10
2022-11-28T03:42:21.220Z,47.90
2022-11-28T03:43:28.884Z,45.15
2022-11-28T03:44:37.994Z,47.72
2022-11-28T03:45:45.096Z,44.45
2022-11-28T03:46:50.339Z,40.88
2022-11-28T03:48:02.964Z,46.03
2022-11-28T03:49:09.443Z,46.75
2022-11-28T03:50:20.052Z,45.20
2022-11-28T03:51:29.846Z,45.60
2022-11-28T03:52:41.311Z,35.08
2022-11-28T03:53:50.517Z,46.67
2022-11-28T03:55:02.021Z,44.65
2022-11-28T03:56:30.468Z,43.08
2022-11-28T03:57:43.611Z,50.42
2022-11-28T03:58:57.790Z,48.33
2022-11-28T04:00:04.766Z,52.83
2022-11-28T04:01:37.276Z,55.00
2022-11-28T04:02:55.456Z,58.50
2022-11-28T04:04:23.134Z,50.08
2022-11-28T04:05:40.432Z,54.20
2022-11-28T04:07:04.043Z,54.58
2022-11-28T04:08:16.466Z,46.55
2022-11-28T04:09:27.670Z,49.40
2022-11-28T04:10:37.021Z,55.85
2022-11-28T04:11:47.058Z,47.38
2022-11-28T04:13:12.393Z,33.63
2022-11-28T04:14:31.622Z,47.40
2022-11-28T04:15:42.106Z,44.95
2022-11-28T04:16:53.962Z,45.42
2022-11-28T04:18:08.846Z,44.55
2022-11-28T04:19:19.077Z,50.30
2022-11-28T04:20:31.668Z,50.08
2022-11-28T04:21:46.696Z,50.70
2022-11-28T04:22:54.509Z,49.08
2022-11-28T04:24:02.622Z,48.08
2022-11-28T04:25:09.666Z,51.33
2022-11-28T04:26:18.749Z,43.88
2022-11-28T04:27:27.283Z,49.63
2022-11-28T04:28:33.201Z,52.45
2022-11-28T04:29:43.081Z,49.42
2022-11-28T04:30:47.677Z,49.03
2022-11-28T04:31:54.328Z,54.40
2022-11-28T04:33:01.143Z,51.75
2022-11-28T04:34:08.222Z,50.50
2022-11-28T04:35:16.781Z,49.05
2022-11-28T04:36:21.545Z,44.10
2022-11-28T04:37:27.640Z,45.92
2022-11-28T04:38:32.569Z,47.25
2022-11-28T04:39:36.945Z,43.58
2022-11-28T04:40:47.158Z,47.00
2022-11-28T04:41:53.790Z,46.00
2022-11-28T04:43:01.951Z,50.90
2022-11-28T04:44:19.689Z,44.92
2022-11-28T04:45:29.031Z,48.55
2022-11-28T04:46:39.130Z,44.78
2022-11-28T04:47:42.741Z,49.63
2022-11-28T04:48:45.467Z,47.58
2022-11-28T04:49:47.894Z,47.35
2022-11-28T04:51:08.800Z,49.38
2022-11-28T04:52:37.331Z,51.15
2022-11-28T04:53:54.426Z,48.75
2022-11-28T04:55:01.520Z,46.95
2022-11-28T04:56:09.799Z,53.45
2022-11-28T04:57:18.141Z,47.45
2022-11-28T04:58:38.224Z,49.10
2022-11-28T04:59:43.205Z,49.55
2022-11-28T05:00:48.530Z,53.28
2022-11-28T05:01:50.801Z,48.03
2022-11-28T05:02:54.906Z,46.33
2022-11-28T05:03:57.470Z,52.80
2022-11-28T05:05:00.107Z,49.17
2022-11-28T05:06:03.568Z,55.08
2022-11-28T05:07:08.167Z,51.20
2022-11-28T05:08:11.143Z,53.85
2022-11-28T05:09:13.641Z,47.92
2022-11-28T05:10:17.182Z,45.97
2022-11-28T05:11:19.867Z,49.03
2022-11-28T05:12:22.293Z,43.10
2022-11-28T05:13:24.508Z,42.30
2022-11-28T05:14:26.974Z,45.70
2022-11-28T05:15:29.217Z,45.72
2022-11-28T05:16:31.439Z,43.08
2022-11-28T05:17:37.723Z,40.72
2022-11-28T05:18:43.010Z,43.95
2022-11-28T05:19:45.395Z,42.53
2022-11-28T05:20:47.620Z,47.72
2022-11-28T05:21:49.829Z,42.90
2022-11-28T05:22:52.320Z,43.83
2022-11-28T05:23:54.493Z,45.67
2022-11-28T05:24:56.859Z,47.05
2022-11-28T05:25:59.058Z,47.83
2022-11-28T05:27:01.217Z,43.28
2022-11-28T05:28:04.116Z,43.15
2022-11-28T05:29:07.246Z,42.25
2022-11-28T05:30:11.127Z,39.90
2022-11-28T05:31:13.802Z,40.83
2022-11-28T05:32:16.118Z,42.95
2022-11-28T05:33:18.297Z,50.83
2022-11-28T05:34:20.715Z,45.67
2022-11-28T05:35:23.481Z,41.58
2022-11-28T05:36:25.629Z,39.10
2022-11-28T05:37:28.040Z,40.65
2022-11-28T05:38:32.514Z,42.50
2022-11-28T05:39:34.679Z,41.35
2022-11-28T05:40:43.370Z,40.15
2022-11-28T05:41:45.522Z,43.10
2022-11-28T05:42:47.702Z,40.33
2022-11-28T05:43:50.224Z,39.72
2022-11-28T05:44:52.781Z,41.67
2022-11-28T05:45:56.276Z,40.45
2022-11-28T05:46:58.654Z,42.78
2022-11-28T05:48:00.823Z,44.22
2022-11-28T05:49:03.065Z,42.53
2022-11-28T05:50:05.902Z,43.95
2022-11-28T05:51:08.774Z,46.08
2022-11-28T05:52:11.164Z,45.15
2022-11-28T05:53:13.438Z,50.17
2022-11-28T05:54:15.788Z,41.63
2022-11-28T05:55:17.956Z,38.92
2022-11-28T05:56:23.021Z,44.35
2022-11-28T05:57:25.376Z,48.72
2022-11-28T05:58:27.548Z,50.10
2022-11-28T05:59:29.898Z,44.35
2022-11-28T06:00:32.613Z,43.47
2022-11-28T06:01:34.785Z,41.08
2022-11-28T06:02:37.012Z,45.03
2022-11-28T06:03:39.563Z,47.83
2022-11-28T06:04:42.064Z,43.60
2022-11-28T06:05:44.850Z,37.83
2022-11-28T06:06:50.855Z,47.38
2022-11-28T06:07:53.305Z,44.30
2022-11-28T06:08:56.119Z,40.00
2022-11-28T06:09:58.486Z,43.42
2022-11-28T06:11:00.817Z,44.30
2022-11-28T06:12:03.206Z,44.42
2022-11-28T06:13:05.735Z,42.35
2022-11-28T06:14:08.367Z,38.53
2022-11-28T06:15:11.068Z,42.58
2022-11-28T06:16:16.951Z,39.03
2022-11-28T06:17:19.201Z,40.28
2022-11-28T06:18:21.643Z,37.85
2022-11-28T06:19:23.978Z,36.95
2022-11-28T06:20:26.461Z,40.13
2022-11-28T06:21:29.820Z,39.40
2022-11-28T06:22:31.986Z,37.83
2022-11-28T06:23:34.554Z,43.60
2022-11-28T06:24:36.947Z,37.63
2022-11-28T06:25:39.141Z,34.88
2022-11-28T06:26:41.372Z,40.97
2022-11-28T06:27:43.564Z,35.53
2022-11-28T06:28:46.036Z,36.85
2022-11-28T06:29:48.387Z,41.22
2022-11-28T06:30:50.592Z,38.30
2022-11-28T06:31:53.116Z,39.58
2022-11-28T06:32:55.535Z,37.40
2022-11-28T06:33:58.696Z,38.75
2022-11-28T06:35:01.036Z,40.03
2022-11-28T06:36:05.049Z,33.47
2022-11-28T06:37:07.381Z,35.40
2022-11-28T06:38:14.037Z,39.60
2022-11-28T06:39:17.752Z,39.15
2022-11-28T06:40:19.936Z,36.78
2022-11-28T06:41:22.991Z,37.35
2022-11-28T06:42:25.328Z,35.90
2022-11-28T06:43:28.126Z,36.92
2022-11-28T06:44:30.800Z,40.35
2022-11-28T06:45:36.145Z,42.53
2022-11-28T06:46:38.314Z,41.95
2022-11-28T06:47:40.480Z,36.17
2022-11-28T06:48:43.304Z,38.53
2022-11-28T06:49:45.658Z,39.45
2022-11-28T06:50:47.961Z,41.05
2022-11-28T06:51:50.140Z,32.17
2022-11-28T06:52:54.833Z,42.05
2022-11-28T06:53:57.482Z,40.67
2022-11-28T06:54:59.650Z,41.08
2022-11-28T06:56:20.350Z,41.55
2022-11-28T06:57:22.628Z,41.40
2022-11-28T06:58:24.913Z,42.47
2022-11-28T06:59:27.276Z,38.85
2022-11-28T07:00:30.098Z,41.83
2022-11-28T07:01:34.221Z,45.55
2022-11-28T07:02:36.731Z,42.03
2022-11-28T07:03:39.903Z,44.22
2022-11-28T07:04:42.093Z,43.30
2022-11-28T07:05:44.658Z,43.70
2022-11-28T07:06:46.816Z,38.28
2022-11-28T07:07:54.220Z,47.20
2022-11-28T07:08:58.463Z,42.33
2022-11-28T07:10:00.609Z,47.45
2022-11-28T07:11:10.607Z,44.53
2022-11-28T07:12:13.573Z,42.77
2022-11-28T07:13:15.744Z,42.80
2022-11-28T07:14:17.966Z,43.53
2022-11-28T07:15:20.161Z,42.53
2022-11-28T07:16:29.255Z,44.05
2022-11-28T07:17:31.491Z,45.88
2022-11-28T07:18:34.927Z,49.22
2022-11-28T07:19:37.457Z,47.00
2022-11-28T07:20:39.876Z,42.83
2022-11-28T07:21:42.531Z,45.45
2022-11-28T07:22:46.923Z,47.95
2022-11-28T07:23:49.126Z,50.13
2022-11-28T07:24:52.117Z,41.90
2022-11-28T07:26:01.879Z,43.33
2022-11-28T07:27:04.192Z,40.97
2022-11-28T07:28:06.516Z,47.75
2022-11-28T07:29:14.355Z,47.47
2022-11-28T07:30:16.853Z,46.30
2022-11-28T07:31:31.963Z,48.50
2022-11-28T07:32:34.527Z,47.75
2022-11-28T07:33:38.005Z,46.80
2022-11-28T07:34:44.578Z,46.20
2022-11-28T07:35:48.793Z,40.58
2022-11-28T07:36:51.289Z,47.28
2022-11-28T07:37:53.507Z,54.03
2022-11-28T07:38:58.180Z,50.45
2022-11-28T07:40:00.362Z,46.75
2022-11-28T07:41:11.125Z,50.47
2022-11-28T07:42:13.890Z,49.55
2022-11-28T07:43:17.136Z,55.30
2022-11-28T07:44:19.315Z,45.88
2022-11-28T07:45:22.902Z,52.13
2022-11-28T07:46:26.658Z,46.80
2022-11-28T07:47:29.122Z,48.22
2022-11-28T07:48:31.299Z,43.75
2022-11-28T07:49:33.557Z,43.90
2022-11-28T07:50:38.994Z,47.50
2022-11-28T07:51:42.003Z,49.17
2022-11-28T07:52:44.190Z,48.55
2022-11-28T07:53:47.105Z,48.97
2022-11-28T07:54:50.243Z,47.50
2022-11-28T07:55:52.651Z,43.80
2022-11-28T07:58:26.561Z,43.38
2022-11-28T07:59:28.770Z,47.55
2022-11-28T08:00:31.828Z,40.78
2022-11-28T08:01:36.040Z,39.92
2022-11-28T08:02:39.460Z,41.15
2022-11-28T08:03:42.160Z,42.38
2022-11-28T08:04:50.437Z,42.15
2022-11-28T08:06:02.910Z,43.20
2022-11-28T08:07:05.390Z,46.38
2022-11-28T08:08:07.611Z,38.00
2022-11-28T08:09:12.069Z,44.70
2022-11-28T08:10:14.270Z,41.22
2022-11-28T08:11:19.230Z,40.95
2022-11-28T08:12:21.698Z,43.40
2022-11-28T08:13:24.150Z,39.42
2022-11-28T08:14:26.326Z,42.55
2022-11-28T08:15:31.638Z,40.88
2022-11-28T08:16:34.020Z,45.05
2022-11-28T08:17:36.266Z,43.75
2022-11-28T08:18:38.584Z,47.17
2022-11-28T08:19:40.812Z,43.08
2022-11-28T08:20:43.119Z,38.35
2022-11-28T08:21:45.457Z,40.97
2022-11-28T08:22:47.821Z,44.83
2022-11-28T08:23:51.962Z,42.13
2022-11-28T08:24:54.468Z,38.60
2022-11-28T08:25:56.681Z,43.08
2022-11-28T08:26:58.843Z,37.65
2022-11-28T08:28:01.045Z,39.90
2022-11-28T08:29:04.075Z,41.85
2022-11-28T08:30:07.546Z,41.88
2022-11-28T08:31:18.911Z,34.60
2022-11-28T08:32:21.330Z,40.45
2022-11-28T08:33:24.640Z,39.13
2022-11-28T08:34:26.797Z,37.35
2022-11-28T08:35:29.403Z,37.30
2022-11-28T08:36:31.891Z,38.15
2022-11-28T08:37:34.021Z,37.75
2022-11-28T08:38:37.277Z,37.47
2022-11-28T08:39:39.439Z,38.20
2022-11-28T08:40:41.847Z,38.47
2022-11-28T08:41:44.028Z,41.58
2022-11-28T08:42:46.189Z,38.08
2022-11-28T08:43:49.353Z,34.83
2022-11-28T08:44:51.515Z,38.72
2022-11-28T08:45:53.909Z,31.23
2022-11-28T08:46:56.129Z,36.20
2022-11-28T08:47:59.130Z,35.63
2022-11-28T08:49:04.793Z,33.70
2022-11-28T08:50:07.688Z,36.28
2022-11-28T08:51:15.847Z,35.55
2022-11-28T08:52:18.301Z,32.78
2022-11-28T08:53:20.675Z,34.22
2022-11-28T08:54:22.865Z,36.33
2022-11-28T08:55:31.929Z,34.17
2022-11-28T08:56:35.581Z,36.80
2022-11-28T08:57:37.715Z,35.13
2022-11-28T08:58:40.579Z,36.75
2022-11-28T08:59:43.029Z,35.22
2022-11-28T09:00:45.519Z,33.75
2022-11-28T09:01:47.746Z,31.38
2022-11-28T09:02:49.898Z,33.15
2022-11-28T09:03:54.068Z,32.92
2022-11-28T09:04:56.303Z,35.30
2022-11-28T09:06:04.783Z,30.98
2022-11-28T09:07:07.037Z,34.75
2022-11-28T09:08:11.712Z,35.95
2022-11-28T09:09:14.637Z,37.10
2022-11-28T09:10:16.861Z,34.90
2022-11-28T09:11:20.667Z,34.53
2022-11-28T09:12:22.825Z,35.88
2022-11-28T09:13:25.185Z,32.78
2022-11-28T09:14:27.431Z,34.60
2022-11-28T09:15:29.640Z,28.48
2022-11-28T09:16:31.917Z,33.63
2022-11-28T09:17:34.389Z,36.40
2022-11-28T09:18:36.950Z,36.53
2022-11-28T09:19:39.398Z,32.78
2022-11-28T09:20:42.051Z,34.38
2022-11-28T09:21:44.259Z,31.30
2022-11-28T09:22:47.468Z,32.03
2022-11-28T09:23:49.655Z,31.05
2022-11-28T09:24:52.042Z,30.45
2022-11-28T09:25:54.291Z,32.20
2022-11-28T09:26:56.821Z,30.40
2022-11-28T09:27:59.274Z,30.02
2022-11-28T09:29:01.539Z,31.67
2022-11-28T09:30:04.169Z,28.77
2022-11-28T09:31:07.673Z,31.08
2022-11-28T09:32:09.957Z,34.70
2022-11-28T09:33:13.449Z,31.08
2022-11-28T09:34:15.964Z,31.17
2022-11-28T09:35:18.705Z,31.35
2022-11-28T09:36:22.701Z,33.38
2022-11-28T09:37:24.896Z,30.02
2022-11-28T09:38:27.074Z,30.70
2022-11-28T09:39:39.531Z,31.10
2022-11-28T09:40:52.161Z,29.63
2022-11-28T09:42:02.341Z,30.85
2022-11-28T09:43:30.102Z,28.73
2022-11-28T09:44:51.778Z,27.20
2022-11-28T09:45:56.446Z,27.65
2022-11-28T09:47:04.271Z,32.17
2022-11-28T09:48:37.887Z,30.75
2022-11-28T09:50:00.997Z,29.42
2022-11-28T09:51:13.465Z,28.90
2022-11-28T09:52:54.023Z,27.73
2022-11-28T09:54:10.560Z,27.40
2022-11-28T09:55:25.016Z,28.90
2022-11-28T09:56:27.611Z,31.85
2022-11-28T09:57:43.543Z,27.98
2022-11-28T09:58:56.082Z,26.92
2022-11-28T09:59:58.287Z,26.10
2022-11-28T10:01:26.116Z,27.40
2022-11-28T10:02:38.986Z,26.80
2022-11-28T10:04:04.341Z,29.52
2022-11-28T10:05:34.088Z,27.38
2022-11-28T10:07:19.203Z,28.52
2022-11-28T10:08:56.452Z,24.48
2022-11-28T10:10:14.427Z,28.90
2022-11-28T10:11:34.878Z,24.75
2022-11-28T10:13:13.698Z,26.10
2022-11-28T10:14:39.372Z,31.02
2022-11-28T10:15:53.587Z,23.52
2022-11-28T10:17:13.121Z,28.98
2022-11-28T10:18:37.614Z,26.67
2022-11-28T10:19:54.314Z,27.33
2022-11-28T10:21:02.664Z,28.33
2022-11-28T10:22:11.566Z,27.00
2022-11-28T10:23:16.238Z,25.38
2022-11-28T10:24:44.942Z,24.40
2022-11-28T10:26:12.523Z,23.02
2022-11-28T10:27:16.863Z,27.67
2022-11-28T10:28:41.706Z,23.15
2022-11-28T10:30:00.096Z,19.70
2022-11-28T10:31:15.800Z,22.17
2022-11-28T10:32:24.143Z,23.25
2022-11-28T10:33:34.519Z,24.55
2022-11-28T10:34:45.599Z,21.25
2022-11-28T10:37:13.644Z,22.40
2022-11-28T10:38:17.319Z,21.73
2022-11-28T10:39:19.776Z,21.92
2022-11-28T10:40:33.556Z,22.58
2022-11-28T10:41:44.523Z,22.83
2022-11-28T10:42:56.612Z,23.90
2022-11-28T10:44:17.046Z,23.17
2022-11-28T10:45:31.783Z,20.35
2022-11-28T10:46:49.798Z,21.80
2022-11-28T10:48:40.620Z,19.00
2022-11-28T10:51:18.692Z,24.88
2022-11-28T10:52:33.997Z,19.88
2022-11-28T10:53:57.986Z,22.45
2022-11-28T10:55:13.725Z,19.52
2022-11-28T10:56:34.535Z,24.70
2022-11-28T10:58:58.491Z,24.33
2022-11-28T11:00:12.493Z,22.88
2022-11-28T11:01:14.839Z,24.92
2022-11-28T11:02:35.231Z,19.90
2022-11-28T11:03:40.262Z,23.42
2022-11-28T11:04:42.503Z,20.00
2022-11-28T11:05:45.457Z,22.17
2022-11-28T11:07:08.871Z,23.73
2022-11-28T11:08:23.053Z,20.77
2022-11-28T11:09:25.539Z,21.90
2022-11-28T11:10:37.050Z,21.95
2022-11-28T11:11:51.131Z,23.58
2022-11-28T11:12:53.590Z,23.27
2022-11-28T11:14:04.668Z,23.92
2022-11-28T11:16:19.635Z,20.67
2022-11-28T11:17:29.030Z,19.33
2022-11-28T11:18:54.978Z,19.98
2022-11-28T11:19:57.364Z,22.98
2022-11-28T11:21:17.821Z,21.50
2022-11-28T11:22:31.586Z,19.30
2022-11-28T11:23:38.040Z,18.75
2022-11-28T11:24:40.858Z,20.52
2022-11-28T11:25:55.533Z,21.83
2022-11-28T11:27:23.843Z,20.73
2022-11-28T11:28:25.970Z,20.13
2022-11-28T11:29:28.265Z,17.88
2022-11-28T11:30:34.767Z,22.08
2022-11-28T11:31:44.826Z,18.27
2022-11-28T11:32:51.373Z,19.83
2022-11-28T11:34:03.835Z,20.70
2022-11-28T11:35:06.635Z,14.02
2022-11-28T11:36:30.784Z,17.67
2022-11-28T11:37:38.318Z,17.48
2022-11-28T11:38:40.545Z,18.50
2022-11-28T11:39:53.303Z,19.52
2022-11-28T11:40:55.665Z,20.17
2022-11-28T11:42:00.590Z,20.35
2022-11-28T11:43:02.764Z,20.23
2022-11-28T11:44:14.445Z,23.02
2022-11-28T11:45:31.526Z,22.95
2022-11-28T11:46:50.170Z,19.05
2022-11-28T11:47:52.714Z,20.15
2022-11-28T11:48:54.885Z,20.30
2022-11-28T11:50:04.939Z,20.05
2022-11-28T11:51:37.921Z,23.85
2022-11-28T11:52:41.595Z,19.60
2022-11-28T11:53:45.155Z,17.23
2022-11-28T11:54:47.230Z,21.10
2022-11-28T11:55:53.097Z,18.40
2022-11-28T11:57:25.116Z,18.85
2022-11-28T11:58:32.416Z,21.63
2022-11-28T11:59:42.853Z,21.58
2022-11-28T12:00:46.601Z,21.40
2022-11-28T12:01:55.104Z,20.83
2022-11-28T12:03:00.776Z,22.27
2022-11-28T12:04:37.069Z,18.60
2022-11-28T12:06:16.596Z,23.20
2022-11-28T12:07:39.868Z,25.65
2022-11-28T12:08:50.199Z,23.48
2022-11-28T12:09:55.633Z,20.73
2022-11-28T12:11:24.922Z,23.55
2022-11-28T12:12:32.406Z,24.02
2022-11-28T12:13:34.624Z,24.77
2022-11-28T12:14:40.352Z,26.08
2022-11-28T12:16:17.951Z,25.02
2022-11-28T12:17:50.801Z,29.33
2022-11-28T12:19:13.953Z,23.92
2022-11-28T12:20:28.162Z,27.90
2022-11-28T12:21:53.036Z,26.33
2022-11-28T12:23:21.198Z,24.92
2022-11-28T12:25:06.902Z,27.90
2022-11-28T12:26:29.428Z,24.42
2022-11-28T12:27:55.043Z,27.10
2022-11-28T12:29:21.714Z,22.80
2022-11-28T12:30:40.463Z,24.85
2022-11-28T12:31:48.171Z,24.48
2022-11-28T12:33:16.786Z,26.02
2022-11-28T12:34:24.818Z,22.80
2022-11-28T12:36:13.247Z,26.15
2022-11-28T12:38:02.763Z,23.95
2022-11-28T12:39:22.228Z,24.95
2022-11-28T12:40:49.484Z,23.50
2022-11-28T12:42:19.708Z,27.45
2022-11-28T12:43:34.284Z,25.15
2022-11-28T12:44:54.988Z,24.58
2022-11-28T12:46:15.962Z,23.70
2022-11-28T12:47:36.341Z,25.15
2022-11-28T12:49:06.202Z,27.23
2022-11-28T12:50:32.023Z,27.48
2022-11-28T12:52:01.633Z,28.08
2022-11-28T12:53:47.273Z,24.95
2022-11-28T12:55:08.822Z,27.10
2022-11-28T12:56:32.896Z,26.48
2022-11-28T12:57:48.761Z,26.33
2022-11-28T12:59:05.984Z,26.55
2022-11-28T13:00:24.551Z,22.15
2022-11-28T13:01:53.017Z,29.52
2022-11-28T13:03:19.826Z,24.13
2022-11-28T13:04:47.044Z,27.27
2022-11-28T13:06:23.653Z,28.23
2022-11-28T13:08:00.139Z,24.58
2022-11-28T13:09:28.632Z,24.92
2022-11-28T13:10:49.103Z,24.60
2022-11-28T13:12:04.703Z,24.83
2022-11-28T13:13:15.746Z,27.73
2022-11-28T13:14:32.654Z,23.90
2022-11-28T13:15:46.605Z,25.73
2022-11-28T13:16:54.668Z,25.35
2022-11-28T13:18:04.571Z,25.02
2022-11-28T13:19:34.769Z,35.70
2022-11-28T13:20:42.155Z,26.92
2022-11-28T13:21:50.507Z,20.98
2022-11-28T13:23:00.211Z,24.08
2022-11-28T13:24:27.664Z,21.63
2022-11-28T13:25:44.816Z,20.92
2022-11-28T13:27:11.719Z,22.52
2022-11-28T13:28:28.331Z,20.67
2022-11-28T13:29:30.537Z,22.60
2022-11-28T13:30:42.763Z,19.42
2022-11-28T13:32:01.567Z,26.92
2022-11-28T13:33:21.651Z,20.67
2022-11-28T13:34:24.393Z,23.92
2022-11-28T13:35:28.486Z,19.58
2022-11-28T13:39:53.520Z,18.13
2022-11-28T13:42:03.448Z,22.15
2022-11-28T13:43:08.776Z,22.45
2022-11-28T13:44:35.478Z,19.77
2022-11-28T13:45:42.513Z,22.50
2022-11-28T13:46:45.939Z,17.58
2022-11-28T13:47:48.303Z,19.00
2022-11-28T13:50:24.872Z,21.85
2022-11-28T13:51:32.970Z,24.58
2022-11-28T13:52:42.582Z,21.50
2022-11-28T13:53:47.586Z,21.40
2022-11-28T13:54:56.109Z,22.23
2022-11-28T13:56:07.295Z,21.00
2022-11-28T13:57:13.233Z,20.85
2022-11-28T13:58:28.899Z,25.40
2022-11-28T13:59:33.157Z,20.58
2022-11-28T14:00:35.342Z,23.00
2022-11-28T14:01:46.350Z,20.08
2022-11-28T14:02:53.286Z,19.58
2022-11-28T14:03:58.104Z,21.67
2022-11-28T14:05:01.459Z,23.67
2022-11-28T14:06:07.338Z,20.92
2022-11-28T14:07:24.837Z,21.27
2022-11-28T14:08:37.647Z,23.20
2022-11-28T14:10:02.125Z,23.00
2022-11-28T14:11:27.875Z,23.10
2022-11-28T14:12:41.969Z,24.23
2022-11-28T14:13:57.989Z,22.83
2022-11-28T14:15:25.403Z,21.42
2022-11-28T14:16:59.219Z,21.40
2022-11-28T14:18:47.740Z,24.15
2022-11-28T14:20:18.661Z,20.50
2022-11-28T14:21:32.948Z,22.05
2022-11-28T14:23:08.105Z,23.63
2022-11-28T14:24:22.283Z,21.52
2022-11-28T14:25:43.543Z,21.80
2022-11-28T14:26:47.480Z,22.95
2022-11-28T14:27:59.413Z,27.35
2022-11-28T14:29:05.222Z,22.63
2022-11-28T14:30:23.043Z,24.48
2022-11-28T14:31:34.699Z,18.27
2022-11-28T14:32:41.712Z,24.30
2022-11-28T14:33:47.117Z,18.85
2022-11-28T14:34:49.962Z,24.60
2022-11-28T14:35:54.919Z,19.17
2022-11-28T14:37:19.510Z,22.58
2022-11-28T14:38:31.098Z,19.75
2022-11-28T14:39:35.208Z,20.75
2022-11-28T14:40:55.641Z,20.70
2022-11-28T14:42:07.991Z,18.58
2022-11-28T14:43:36.864Z,21.75
2022-11-28T14:44:47.687Z,21.50
2022-11-28T14:45:51.482Z,23.08
2022-11-28T14:47:15.879Z,21.17
2022-11-28T14:48:29.561Z,21.35
2022-11-28T14:49:33.346Z,22.33
2022-11-28T14:50:38.678Z,20.10
2022-11-28T14:52:00.126Z,27.80
2022-11-28T14:54:36.102Z,24.63
2022-11-28T14:55:39.435Z,22.67
2022-11-28T14:56:41.757Z,18.23
2022-11-28T14:57:58.015Z,24.05
2022-11-28T14:59:03.386Z,21.52
2022-11-28T15:00:15.951Z,24.85
2022-11-28T15:01:41.494Z,21.40
2022-11-28T15:03:08.189Z,22.50
2022-11-28T15:04:14.187Z,25.70
2022-11-28T15:05:30.958Z,20.38
2022-11-28T15:06:37.908Z,23.00
2022-11-28T15:08:01.470Z,24.88
2022-11-28T15:09:18.652Z,22.58
2022-11-28T15:10:29.400Z,23.35